Matala Airport

Jump to: basic info | weather | runways | comments

Related pages: nearby airports | nearby navaids | notams | map

Basic information (top)

Codes: FN18
Location: lon -14.727500, lat 15.014000, elev 4,120 ft / 1,256 m msl
Status: small_airport

Weather (top)

Current conditions for Lubango Airport 84nm (156km) W (rec'd 2014/04/17 15:00Z):

FNUB 171500Z 10012KT 9999 FEW018 SCT025 BKN250 26/// Q1022

Airport forecast for Lubango Airport 84nm (156km) W (rec'd 2014/04/17 12:00Z):

TAF FNUB 171100Z 1712/1724 17010KT 9999 FEW025 SCT050 
      TEMPO 1714/1718 24005KT CAVOK 
      BECMG 1720/1722 VRB03KT 8000 -RA SCT020 BKN025

Runways (top)

10/28: 8,015 x 98 ft (2,443 x 30 m) — paved — not lighted

Latest comments (top)

No comments yet for Matala Airport

More... (top)

See also NOTAMs and nearby airports and navaids, or visit the Matala Airport page at the main OurAirports website..